createdAt,value
2023-03-16T00:00:33.083Z,100025.63
2023-03-16T00:03:03.856Z,100017.94
2023-03-16T00:05:33.924Z,100014.97
2023-03-16T00:08:03.965Z,100017.28
2023-03-16T00:10:34.014Z,100021.22
2023-03-16T00:13:07.250Z,100012.19
2023-03-16T00:15:37.245Z,100012.81
2023-03-16T00:18:07.389Z,100019.38
2023-03-16T00:20:37.406Z,100021.03
2023-03-16T00:23:08.048Z,100027.00
2023-03-16T00:25:38.040Z,100021.34
2023-03-16T00:28:14.192Z,100010.72
2023-03-16T00:30:47.571Z,100013.72
2023-03-16T00:33:17.726Z,100012.06
2023-03-16T00:35:51.128Z,100006.53
2023-03-16T00:38:22.290Z,100011.25
2023-03-16T00:40:52.477Z,100010.47
2023-03-16T00:43:27.471Z,100016.47
2023-03-16T00:46:06.957Z,100009.84
2023-03-16T00:48:37.687Z,100008.19
2023-03-16T00:51:09.783Z,100014.34
2023-03-16T00:53:40.014Z,100033.13
2023-03-16T00:56:11.793Z,100039.91
2023-03-16T00:58:45.658Z,100039.00
2023-03-16T01:01:19.269Z,100035.94
2023-03-16T01:03:49.933Z,100033.09
2023-03-16T01:06:21.092Z,100030.56
2023-03-16T01:08:52.542Z,100038.00
2023-03-16T01:11:26.039Z,100019.09
2023-03-16T01:13:58.652Z,100029.63
2023-03-16T01:16:29.099Z,100023.28
2023-03-16T01:18:59.579Z,100025.09
2023-03-16T01:21:30.301Z,100029.88
2023-03-16T01:24:00.352Z,100030.78
2023-03-16T01:26:30.544Z,100025.88
2023-03-16T01:29:03.179Z,100027.16
2023-03-16T01:31:33.372Z,100025.91
2023-03-16T01:34:04.334Z,100029.09
2023-03-16T01:36:34.820Z,100028.59
2023-03-16T01:39:07.016Z,100026.81
2023-03-16T01:41:37.090Z,100032.56
2023-03-16T01:44:11.544Z,100032.63
2023-03-16T01:46:43.884Z,100039.03
2023-03-16T01:49:17.881Z,100031.31
2023-03-16T01:51:52.689Z,100050.28
2023-03-16T01:54:28.999Z,100047.72
2023-03-16T01:57:04.857Z,100057.03
2023-03-16T01:59:43.312Z,100063.31
2023-03-16T02:02:16.443Z,100063.84
2023-03-16T02:04:52.268Z,100058.31
2023-03-16T02:07:25.531Z,100078.09
2023-03-16T02:10:01.121Z,100086.19
2023-03-16T02:12:32.190Z,100075.97
2023-03-16T02:15:05.170Z,100074.41
2023-03-16T02:17:37.266Z,100080.09
2023-03-16T02:20:26.040Z,100087.97
2023-03-16T02:22:57.546Z,100084.38
2023-03-16T02:25:32.527Z,100080.81
2023-03-16T02:28:11.369Z,100088.56
2023-03-16T02:30:44.379Z,100079.50
2023-03-16T02:33:16.614Z,100078.94
2023-03-16T02:35:46.812Z,100077.88
2023-03-16T02:38:17.012Z,100060.91
2023-03-16T02:40:49.026Z,100071.78
2023-03-16T02:43:23.704Z,100083.91
2023-03-16T02:46:00.077Z,100071.88
2023-03-16T02:48:35.392Z,100080.22
2023-03-16T02:51:05.481Z,100085.28
2023-03-16T02:53:35.601Z,100088.88
2023-03-16T02:56:06.130Z,100087.03
2023-03-16T02:58:36.574Z,100096.16
2023-03-16T03:01:09.625Z,100088.88
2023-03-16T03:03:39.828Z,100091.31
2023-03-16T03:06:10.219Z,100095.72
2023-03-16T03:08:40.304Z,100098.09
2023-03-16T03:11:10.548Z,100102.91
2023-03-16T03:13:44.808Z,100086.34
2023-03-16T03:16:17.781Z,100094.16
2023-03-16T03:18:48.029Z,100087.94
2023-03-16T03:21:18.469Z,100102.91
2023-03-16T03:23:49.355Z,100104.78
2023-03-16T03:26:20.222Z,100095.13
2023-03-16T03:28:50.340Z,100104.63
2023-03-16T03:31:25.140Z,100107.13
2023-03-16T03:33:55.871Z,100106.88
2023-03-16T03:36:26.082Z,100116.06
2023-03-16T03:38:57.513Z,100119.13
2023-03-16T03:41:27.534Z,100115.72
2023-03-16T03:43:57.722Z,100121.03
2023-03-16T03:46:30.570Z,100117.44
2023-03-16T03:49:04.070Z,100128.63
2023-03-16T03:51:34.497Z,100121.94
2023-03-16T03:54:04.734Z,100130.16
2023-03-16T03:56:34.912Z,100124.84
2023-03-16T03:59:05.074Z,100129.88
2023-03-16T04:01:37.737Z,100123.59
2023-03-16T04:04:07.919Z,100131.66
2023-03-16T04:06:37.977Z,100131.81
2023-03-16T04:09:08.113Z,100131.81
2023-03-16T04:11:38.127Z,100145.25
2023-03-16T04:14:08.612Z,100143.63
2023-03-16T04:16:41.297Z,100153.94
2023-03-16T04:19:11.539Z,100137.94
2023-03-16T04:21:41.635Z,100139.84
2023-03-16T04:24:15.020Z,100139.56
2023-03-16T04:26:45.327Z,100145.84
2023-03-16T04:29:18.324Z,100147.47
2023-03-16T04:31:51.246Z,100148.53
2023-03-16T04:34:25.089Z,100152.72
2023-03-16T04:36:55.271Z,100144.44
2023-03-16T04:39:25.460Z,100145.72
2023-03-16T04:41:55.705Z,100158.72
2023-03-16T04:44:26.380Z,100163.66
2023-03-16T04:46:59.376Z,100166.06
2023-03-16T04:49:29.412Z,100165.13
2023-03-16T04:51:59.454Z,100168.03
2023-03-16T04:54:29.472Z,100169.69
2023-03-16T04:56:59.853Z,100169.25
2023-03-16T04:59:30.547Z,100173.22
2023-03-16T05:02:04.335Z,100172.13
2023-03-16T05:04:34.748Z,100170.91
2023-03-16T05:07:05.168Z,100170.69
2023-03-16T05:09:35.302Z,100183.78
2023-03-16T05:12:05.546Z,100185.22
2023-03-16T05:14:36.332Z,100191.41
2023-03-16T05:17:09.147Z,100195.50
2023-03-16T05:19:39.262Z,100192.28
2023-03-16T05:22:10.222Z,100204.84
2023-03-16T05:24:40.466Z,100208.94
2023-03-16T05:27:10.667Z,100207.47
2023-03-16T05:29:40.781Z,100205.56
2023-03-16T05:32:14.105Z,100191.59
2023-03-16T05:34:44.437Z,100202.53
2023-03-16T05:37:14.884Z,100202.13
2023-03-16T05:39:45.015Z,100210.72
2023-03-16T05:42:15.039Z,100211.66
2023-03-16T05:44:45.226Z,100217.25
2023-03-16T05:47:18.040Z,100213.59
2023-03-16T05:49:48.496Z,100221.47
2023-03-16T05:52:18.601Z,100222.69
2023-03-16T05:54:48.710Z,100226.59
2023-03-16T05:57:19.225Z,100228.25
2023-03-16T05:59:49.434Z,100238.63
2023-03-16T06:02:23.100Z,100232.34
2023-03-16T06:04:53.230Z,100237.53
2023-03-16T06:07:23.534Z,100249.63
2023-03-16T06:09:53.826Z,100252.03
2023-03-16T06:12:24.044Z,100258.31
2023-03-16T06:14:54.115Z,100263.53
2023-03-16T06:17:26.857Z,100272.91
2023-03-16T06:19:56.924Z,100276.84
2023-03-16T06:22:27.037Z,100278.00
2023-03-16T06:24:57.102Z,100283.00
2023-03-16T06:27:28.709Z,100288.22
2023-03-16T06:29:58.788Z,100285.47
2023-03-16T06:32:31.981Z,100276.91
2023-03-16T06:35:03.661Z,100280.69
2023-03-16T06:37:34.489Z,100302.13
2023-03-16T06:40:04.751Z,100316.69
2023-03-16T06:42:34.849Z,100311.16
2023-03-16T06:45:04.933Z,100317.47
2023-03-16T06:47:37.616Z,100323.91
2023-03-16T06:50:09.233Z,100326.06
2023-03-16T06:52:39.270Z,100333.31
2023-03-16T06:55:10.604Z,100331.56
2023-03-16T06:57:40.684Z,100337.13
2023-03-16T07:00:14.292Z,100343.81
2023-03-16T07:02:47.227Z,100342.81
2023-03-16T07:05:17.367Z,100342.00
2023-03-16T07:07:47.460Z,100350.28
2023-03-16T07:10:20.341Z,100352.91
2023-03-16T07:12:50.622Z,100355.53
2023-03-16T07:15:21.448Z,100350.22
2023-03-16T07:17:54.145Z,100360.28
2023-03-16T07:20:24.213Z,100365.66
2023-03-16T07:22:54.633Z,100369.56
2023-03-16T07:25:24.869Z,100366.91
2023-03-16T07:27:55.131Z,100364.69
2023-03-16T07:30:25.638Z,100351.53
2023-03-16T07:32:58.898Z,100377.28
2023-03-16T07:35:29.786Z,100382.19
2023-03-16T07:37:59.980Z,100381.84
2023-03-16T07:40:30.555Z,100385.00
2023-03-16T07:43:01.458Z,100390.03
2023-03-16T07:45:31.783Z,100396.03
2023-03-16T07:48:04.792Z,100394.00
2023-03-16T07:50:34.876Z,100401.31
2023-03-16T07:53:05.488Z,100392.97
2023-03-16T07:55:36.785Z,100407.91
2023-03-16T07:58:07.433Z,100407.78
2023-03-16T08:00:37.670Z,100401.63
2023-03-16T08:03:10.530Z,100403.47
2023-03-16T08:05:40.698Z,100403.34
2023-03-16T08:08:11.414Z,100403.19
2023-03-16T08:10:41.994Z,100414.22
2023-03-16T08:13:12.076Z,100413.81
2023-03-16T08:15:42.565Z,100416.94
2023-03-16T08:18:15.258Z,100411.63
2023-03-16T08:20:45.786Z,100413.31
2023-03-16T08:23:15.925Z,100410.59
2023-03-16T08:25:46.504Z,100416.53
2023-03-16T08:28:17.842Z,100423.75
2023-03-16T08:30:48.997Z,100425.69
2023-03-16T08:33:23.370Z,100432.13
2023-03-16T08:35:53.649Z,100435.19
2023-03-16T08:38:23.767Z,100436.75
2023-03-16T08:40:54.455Z,100439.06
2023-03-16T08:43:24.498Z,100443.44
2023-03-16T08:45:54.656Z,100434.16
2023-03-16T08:48:27.481Z,100450.16
2023-03-16T08:50:58.466Z,100448.53
2023-03-16T08:53:28.794Z,100436.59
2023-03-16T08:56:05.354Z,100427.63
2023-03-16T08:58:35.856Z,100449.75
2023-03-16T09:01:09.375Z,100445.84
2023-03-16T09:03:42.637Z,100441.59
2023-03-16T09:06:14.599Z,100443.81
2023-03-16T09:08:45.705Z,100445.47
2023-03-16T09:11:17.462Z,100434.94
2023-03-16T09:13:48.572Z,100441.66
2023-03-16T09:16:21.245Z,100439.13
2023-03-16T09:18:54.437Z,100440.34
2023-03-16T09:21:24.622Z,100440.22
2023-03-16T09:23:55.167Z,100449.44
2023-03-16T09:26:25.512Z,100436.13
2023-03-16T09:28:55.684Z,100448.03
2023-03-16T09:31:25.969Z,100451.00
2023-03-16T09:33:58.899Z,100465.69
2023-03-16T09:36:29.135Z,100463.94
2023-03-16T09:38:59.255Z,100460.03
2023-03-16T09:41:44.297Z,100466.88
2023-03-16T09:44:29.409Z,100475.34
2023-03-16T09:47:02.332Z,100466.00
2023-03-16T09:49:39.731Z,100479.25
2023-03-16T09:52:20.908Z,100470.09
2023-03-16T09:54:56.868Z,100469.44
2023-03-16T09:57:30.754Z,100469.09
2023-03-16T10:00:06.763Z,100480.56
2023-03-16T10:02:51.348Z,100480.09
2023-03-16T10:05:27.525Z,100477.91
2023-03-16T10:08:17.000Z,100463.38
2023-03-16T10:11:15.562Z,100485.81
2023-03-16T10:13:51.209Z,100484.97
2023-03-16T10:16:25.286Z,100483.03
2023-03-16T10:19:03.595Z,100483.38
2023-03-16T10:21:42.260Z,100483.50
2023-03-16T10:24:28.882Z,100475.16
2023-03-16T10:27:02.532Z,100491.25
2023-03-16T10:29:37.266Z,100484.69
2023-03-16T10:32:16.959Z,100485.72
2023-03-16T10:34:51.767Z,100488.66
2023-03-16T10:37:24.516Z,100497.66
2023-03-16T10:39:56.629Z,100477.63
2023-03-16T10:42:28.068Z,100485.03
2023-03-16T10:45:03.352Z,100496.25
2023-03-16T10:47:36.425Z,100473.56
2023-03-16T10:50:17.041Z,100490.06
2023-03-16T10:52:53.387Z,100493.38
2023-03-16T10:55:27.005Z,100491.16
2023-03-16T10:57:58.762Z,100484.63
2023-03-16T11:00:38.682Z,100485.41
2023-03-16T11:03:25.302Z,100485.53
2023-03-16T11:06:03.775Z,100485.47
2023-03-16T11:08:41.703Z,100492.97
2023-03-16T11:11:14.919Z,100506.44
2023-03-16T11:13:48.613Z,100489.22
2023-03-16T11:16:28.368Z,100486.69
2023-03-16T11:19:02.000Z,100518.84
2023-03-16T11:21:42.354Z,100499.31
2023-03-16T11:24:23.221Z,100500.88
2023-03-16T11:26:57.391Z,100516.19
2023-03-16T11:29:35.656Z,100495.69
2023-03-16T11:32:08.536Z,100506.50
2023-03-16T11:34:38.805Z,100513.97
2023-03-16T11:37:19.632Z,100520.53
2023-03-16T11:40:01.575Z,100516.38
2023-03-16T11:42:36.631Z,100531.69
2023-03-16T11:45:22.130Z,100505.22
2023-03-16T11:48:18.973Z,100511.06
2023-03-16T11:51:05.005Z,100507.38
2023-03-16T11:53:49.770Z,100524.66
2023-03-16T11:56:32.118Z,100517.66
2023-03-16T11:59:22.097Z,100517.06
2023-03-16T12:02:05.348Z,100519.84
2023-03-16T12:04:49.109Z,100527.50
2023-03-16T12:07:33.680Z,100520.81
2023-03-16T12:10:18.802Z,100525.34
2023-03-16T12:13:03.370Z,100547.78
2023-03-16T12:15:40.167Z,100549.81
2023-03-16T12:18:18.339Z,100548.38
2023-03-16T12:20:55.512Z,100541.34
2023-03-16T12:23:31.488Z,100550.13
2023-03-16T12:26:03.734Z,100548.38
2023-03-16T12:28:36.368Z,100552.78
2023-03-16T12:31:13.426Z,100551.38
2023-03-16T12:34:11.979Z,100554.34
2023-03-16T12:36:58.893Z,100555.38
2023-03-16T12:39:46.032Z,100567.06
2023-03-16T12:42:36.712Z,100567.97
2023-03-16T12:45:16.101Z,100571.81
2023-03-16T12:47:55.251Z,100574.41
2023-03-16T12:50:25.609Z,100579.34
2023-03-16T12:52:56.907Z,100597.53
2023-03-16T12:55:30.142Z,100586.91
2023-03-16T12:58:08.782Z,100589.31
2023-03-16T13:00:43.475Z,100604.38
2023-03-16T13:03:18.542Z,100602.41
2023-03-16T13:05:53.582Z,100602.69
2023-03-16T13:08:24.773Z,100605.88
2023-03-16T13:11:06.538Z,100609.25
2023-03-16T13:13:37.462Z,100607.50
2023-03-16T13:16:13.022Z,100611.19
2023-03-16T13:18:45.391Z,100606.88
2023-03-16T13:21:21.699Z,100611.91
2023-03-16T13:23:58.716Z,100617.56
2023-03-16T13:26:43.582Z,100623.13
2023-03-16T13:29:27.233Z,100636.28
2023-03-16T13:32:02.125Z,100634.75
2023-03-16T13:34:34.771Z,100645.44
2023-03-16T13:37:04.825Z,100644.66
2023-03-16T13:39:35.575Z,100650.59
2023-03-16T13:42:07.856Z,100651.59
2023-03-16T13:44:43.325Z,100647.94
2023-03-16T13:47:20.779Z,100660.63
2023-03-16T13:49:52.255Z,100677.25
2023-03-16T13:52:30.160Z,100660.00
2023-03-16T13:55:02.219Z,100673.00
2023-03-16T13:57:35.114Z,100670.78
2023-03-16T14:00:10.072Z,100682.78
2023-03-16T14:02:45.422Z,100686.38
2023-03-16T14:05:21.366Z,100690.22
2023-03-16T14:07:53.387Z,100686.75
2023-03-16T14:10:25.484Z,100695.66
2023-03-16T14:12:56.593Z,100698.72
2023-03-16T14:15:31.220Z,100699.19
2023-03-16T14:18:16.888Z,100697.50
2023-03-16T14:20:47.163Z,100704.91
2023-03-16T14:23:21.958Z,100716.22
2023-03-16T14:25:53.733Z,100705.88
2023-03-16T14:28:32.116Z,100714.63
2023-03-16T14:31:07.603Z,100711.34
2023-03-16T14:33:42.850Z,100713.34
2023-03-16T14:36:17.749Z,100726.63
2023-03-16T14:38:48.859Z,100730.88
2023-03-16T14:41:26.447Z,100721.53
2023-03-16T14:44:00.331Z,100742.53
2023-03-16T14:46:33.332Z,100712.38
2023-03-16T14:49:11.000Z,100728.00
2023-03-16T14:51:43.770Z,100751.31
2023-03-16T14:54:18.425Z,100746.91
2023-03-16T14:56:51.863Z,100758.22
2023-03-16T14:59:22.526Z,100736.78
2023-03-16T15:01:53.714Z,100755.44
2023-03-16T15:04:31.497Z,100766.84
2023-03-16T15:07:02.363Z,100769.44
2023-03-16T15:09:38.866Z,100756.78
2023-03-16T15:12:18.183Z,100763.63
2023-03-16T15:15:00.757Z,100763.97
2023-03-16T15:17:30.806Z,100775.75
2023-03-16T15:20:03.475Z,100789.94
2023-03-16T15:22:35.733Z,100785.28
2023-03-16T15:25:14.812Z,100793.03
2023-03-16T15:27:44.864Z,100792.66
2023-03-16T15:30:19.338Z,100802.00
2023-03-16T15:32:49.706Z,100793.56
2023-03-16T15:35:23.450Z,100813.94
2023-03-16T15:37:54.203Z,100820.16
2023-03-16T15:40:26.494Z,100818.50
2023-03-16T15:42:56.830Z,100828.13
2023-03-16T15:45:27.420Z,100821.03
2023-03-16T15:47:58.434Z,100831.53
2023-03-16T15:50:31.701Z,100845.41
2023-03-16T15:53:05.702Z,100843.59
2023-03-16T15:55:39.321Z,100843.16
2023-03-16T15:58:13.638Z,100856.94
2023-03-16T16:00:44.294Z,100866.38
2023-03-16T16:03:15.540Z,100877.09
2023-03-16T16:05:48.135Z,100896.16
2023-03-16T16:08:18.202Z,100884.44
2023-03-16T16:10:49.723Z,100881.84
2023-03-16T16:13:24.819Z,100899.13
2023-03-16T16:15:57.003Z,100891.41
2023-03-16T16:18:32.625Z,100929.31
2023-03-16T16:21:09.142Z,100919.84
2023-03-16T16:23:39.266Z,100919.31
2023-03-16T16:26:19.857Z,100922.69
2023-03-16T16:28:50.124Z,100926.16
2023-03-16T16:31:20.974Z,100926.41
2023-03-16T16:33:51.104Z,100928.84
2023-03-16T16:36:25.451Z,100919.44
2023-03-16T16:38:57.243Z,100951.16
2023-03-16T16:41:32.035Z,100945.19
2023-03-16T16:44:08.381Z,100941.06
2023-03-16T16:46:43.983Z,100942.94
2023-03-16T16:49:19.786Z,100941.31
2023-03-16T16:51:53.078Z,100960.25
2023-03-16T16:54:25.218Z,100946.69
2023-03-16T16:56:57.431Z,100972.41
2023-03-16T16:59:29.912Z,100971.78
2023-03-16T17:02:00.513Z,100959.75
2023-03-16T17:04:32.705Z,100986.38
2023-03-16T17:07:05.372Z,100987.34
2023-03-16T17:09:35.368Z,100989.16
2023-03-16T17:12:05.540Z,100981.47
2023-03-16T17:14:35.582Z,100995.97
2023-03-16T17:17:10.089Z,101001.50
2023-03-16T17:19:40.229Z,101016.34
2023-03-16T17:22:24.684Z,101013.00
2023-03-16T17:24:55.437Z,101024.47
2023-03-16T17:27:29.904Z,101026.13
2023-03-16T17:30:00.428Z,101025.53
2023-03-16T17:32:30.745Z,101027.25
2023-03-16T17:35:01.092Z,101047.13
2023-03-16T17:37:33.726Z,101028.31
2023-03-16T17:40:03.764Z,101046.38
2023-03-16T17:42:33.771Z,101039.53
2023-03-16T17:45:05.109Z,101048.38
2023-03-16T17:47:39.807Z,101052.56
2023-03-16T17:50:20.170Z,101051.91
2023-03-16T17:52:55.135Z,101065.84
2023-03-16T17:55:27.299Z,101054.66
2023-03-16T17:57:58.502Z,101078.56
2023-03-16T18:00:32.677Z,101088.84
2023-03-16T18:03:04.546Z,101086.25
2023-03-16T18:05:36.889Z,101098.41
2023-03-16T18:08:18.209Z,101092.25
2023-03-16T18:10:49.706Z,101090.59
2023-03-16T18:13:23.730Z,101100.03
2023-03-16T18:15:55.324Z,101105.94
2023-03-16T18:18:27.834Z,101117.97
2023-03-16T18:20:58.329Z,101114.69
2023-03-16T18:23:33.683Z,101108.72
2023-03-16T18:26:06.527Z,101113.84
2023-03-16T18:28:37.885Z,101090.59
2023-03-16T18:31:08.498Z,101103.63
2023-03-16T18:33:41.220Z,101100.53
2023-03-16T18:36:18.901Z,101110.03
2023-03-16T18:38:53.941Z,101101.50
2023-03-16T18:41:25.887Z,101106.75
2023-03-16T18:43:58.143Z,101107.84
2023-03-16T18:46:30.206Z,101109.63
2023-03-16T18:49:02.243Z,101116.06
2023-03-16T18:51:32.669Z,101120.94
2023-03-16T18:54:05.842Z,101121.44
